sensor_id;sensor_type;location;lat;lon;timestamp;P1;durP1;ratioP1;P2;durP2;ratioP2
74293;SDS011;64044;59.904;10.738;2023-07-09T00:00:06;9.50;;;3.17;;
74293;SDS011;64044;59.904;10.738;2023-07-09T00:02:44;3.38;;;2.50;;
74293;SDS011;64044;59.904;10.738;2023-07-09T00:05:13;2.67;;;2.35;;
74293;SDS011;64044;59.904;10.738;2023-07-09T00:07:42;4.70;;;2.70;;
74293;SDS011;64044;59.904;10.738;2023-07-09T00:12:42;2.55;;;2.35;;
74293;SDS011;64044;59.904;10.738;2023-07-09T00:15:10;3.92;;;2.75;;
74293;SDS011;64044;59.904;10.738;2023-07-09T00:17:36;3.90;;;2.85;;
74293;SDS011;64044;59.904;10.738;2023-07-09T00:20:05;5.15;;;2.78;;
74293;SDS011;64044;59.904;10.738;2023-07-09T00:22:36;3.92;;;2.50;;
74293;SDS011;64044;59.904;10.738;2023-07-09T00:25:02;5.32;;;2.67;;
74293;SDS011;64044;59.904;10.738;2023-07-09T00:27:29;3.63;;;2.75;;
74293;SDS011;64044;59.904;10.738;2023-07-09T00:29:57;3.72;;;2.63;;
74293;SDS011;64044;59.904;10.738;2023-07-09T00:32:23;3.00;;;2.40;;
74293;SDS011;64044;59.904;10.738;2023-07-09T00:34:50;5.10;;;3.25;;
74293;SDS011;64044;59.904;10.738;2023-07-09T00:37:19;4.55;;;3.15;;
74293;SDS011;64044;59.904;10.738;2023-07-09T00:39:47;5.30;;;3.55;;
74293;SDS011;64044;59.904;10.738;2023-07-09T00:44:47;6.93;;;4.53;;
74293;SDS011;64044;59.904;10.738;2023-07-09T00:47:23;5.18;;;4.10;;
74293;SDS011;64044;59.904;10.738;2023-07-09T00:50:03;7.13;;;4.80;;
74293;SDS011;64044;59.904;10.738;2023-07-09T00:52:38;7.82;;;4.72;;
74293;SDS011;64044;59.904;10.738;2023-07-09T00:55:10;10.45;;;4.40;;
74293;SDS011;64044;59.904;10.738;2023-07-09T00:57:39;4.40;;;3.78;;
74293;SDS011;64044;59.904;10.738;2023-07-09T01:00:09;6.63;;;4.00;;
74293;SDS011;64044;59.904;10.738;2023-07-09T01:02:40;6.88;;;3.63;;
74293;SDS011;64044;59.904;10.738;2023-07-09T01:05:10;4.47;;;3.40;;
74293;SDS011;64044;59.904;10.738;2023-07-09T01:07:37;5.85;;;3.58;;
74293;SDS011;64044;59.904;10.738;2023-07-09T01:10:04;4.97;;;3.40;;
74293;SDS011;64044;59.904;10.738;2023-07-09T01:12:30;4.80;;;3.67;;
74293;SDS011;64044;59.904;10.738;2023-07-09T01:14:56;4.47;;;3.65;;
74293;SDS011;64044;59.904;10.738;2023-07-09T01:17:24;3.97;;;2.92;;
74293;SDS011;64044;59.904;10.738;2023-07-09T01:19:54;5.00;;;3.22;;
74293;SDS011;64044;59.904;10.738;2023-07-09T01:22:21;3.90;;;3.08;;
74293;SDS011;64044;59.904;10.738;2023-07-09T01:25:21;4.20;;;3.03;;
74293;SDS011;64044;59.904;10.738;2023-07-09T01:27:42;4.68;;;2.70;;
74293;SDS011;64044;59.904;10.738;2023-07-09T01:30:15;4.40;;;3.28;;
74293;SDS011;64044;59.904;10.738;2023-07-09T01:32:41;3.70;;;2.90;;
74293;SDS011;64044;59.904;10.738;2023-07-09T01:35:11;6.80;;;3.67;;
74293;SDS011;64044;59.904;10.738;2023-07-09T01:37:40;4.38;;;3.22;;
74293;SDS011;64044;59.904;10.738;2023-07-09T01:40:06;4.28;;;3.53;;
74293;SDS011;64044;59.904;10.738;2023-07-09T01:42:34;3.72;;;3.00;;
74293;SDS011;64044;59.904;10.738;2023-07-09T01:45:03;3.67;;;2.78;;
74293;SDS011;64044;59.904;10.738;2023-07-09T01:47:29;3.97;;;2.67;;
74293;SDS011;64044;59.904;10.738;2023-07-09T01:49:55;3.63;;;2.78;;
74293;SDS011;64044;59.904;10.738;2023-07-09T01:52:22;3.40;;;2.25;;
74293;SDS011;64044;59.904;10.738;2023-07-09T01:54:49;3.80;;;2.80;;
74293;SDS011;64044;59.904;10.738;2023-07-09T01:59:58;3.83;;;2.58;;
74293;SDS011;64044;59.904;10.738;2023-07-09T02:02:25;3.42;;;2.47;;
74293;SDS011;64044;59.904;10.738;2023-07-09T02:04:52;5.88;;;2.63;;
74293;SDS011;64044;59.904;10.738;2023-07-09T02:07:21;4.55;;;2.38;;
74293;SDS011;64044;59.904;10.738;2023-07-09T02:09:48;3.25;;;2.55;;
74293;SDS011;64044;59.904;10.738;2023-07-09T02:12:14;3.00;;;2.60;;
74293;SDS011;64044;59.904;10.738;2023-07-09T02:14:41;5.00;;;2.75;;
74293;SDS011;64044;59.904;10.738;2023-07-09T02:17:09;3.55;;;2.50;;
74293;SDS011;64044;59.904;10.738;2023-07-09T02:19:36;8.00;;;4.22;;
74293;SDS011;64044;59.904;10.738;2023-07-09T02:22:02;6.85;;;3.72;;
74293;SDS011;64044;59.904;10.738;2023-07-09T02:24:28;4.22;;;2.70;;
74293;SDS011;64044;59.904;10.738;2023-07-09T02:26:55;6.00;;;2.47;;
74293;SDS011;64044;59.904;10.738;2023-07-09T02:29:22;3.45;;;2.40;;
74293;SDS011;64044;59.904;10.738;2023-07-09T02:31:48;4.43;;;2.38;;
74293;SDS011;64044;59.904;10.738;2023-07-09T02:34:16;4.18;;;2.55;;
74293;SDS011;64044;59.904;10.738;2023-07-09T02:36:42;2.50;;;2.28;;
74293;SDS011;64044;59.904;10.738;2023-07-09T02:39:12;5.20;;;3.28;;
74293;SDS011;64044;59.904;10.738;2023-07-09T02:41:39;2.50;;;2.30;;
74293;SDS011;64044;59.904;10.738;2023-07-09T02:44:05;3.47;;;2.55;;
74293;SDS011;64044;59.904;10.738;2023-07-09T02:46:31;2.95;;;2.53;;
74293;SDS011;64044;59.904;10.738;2023-07-09T02:48:57;5.10;;;2.80;;
74293;SDS011;64044;59.904;10.738;2023-07-09T02:51:23;4.28;;;2.55;;
74293;SDS011;64044;59.904;10.738;2023-07-09T02:53:52;4.25;;;2.40;;
74293;SDS011;64044;59.904;10.738;2023-07-09T02:56:19;2.97;;;2.42;;
74293;SDS011;64044;59.904;10.738;2023-07-09T02:58:45;2.75;;;2.47;;
74293;SDS011;64044;59.904;10.738;2023-07-09T03:01:11;4.38;;;2.33;;
74293;SDS011;64044;59.904;10.738;2023-07-09T03:03:37;3.17;;;2.47;;
74293;SDS011;64044;59.904;10.738;2023-07-09T03:06:06;4.45;;;2.40;;
74293;SDS011;64044;59.904;10.738;2023-07-09T03:08:31;2.90;;;2.40;;
74293;SDS011;64044;59.904;10.738;2023-07-09T03:10:57;3.00;;;2.28;;
74293;SDS011;64044;59.904;10.738;2023-07-09T03:13:23;2.63;;;2.38;;
74293;SDS011;64044;59.904;10.738;2023-07-09T03:15:56;7.32;;;3.28;;
74293;SDS011;64044;59.904;10.738;2023-07-09T03:18:22;5.18;;;2.60;;
74293;SDS011;64044;59.904;10.738;2023-07-09T03:20:49;4.97;;;2.20;;
74293;SDS011;64044;59.904;10.738;2023-07-09T03:23:14;3.65;;;2.20;;
74293;SDS011;64044;59.904;10.738;2023-07-09T03:25:41;2.78;;;2.10;;
74293;SDS011;64044;59.904;10.738;2023-07-09T03:28:07;4.53;;;2.40;;
74293;SDS011;64044;59.904;10.738;2023-07-09T03:30:33;4.90;;;2.58;;
74293;SDS011;64044;59.904;10.738;2023-07-09T03:32:58;4.00;;;2.70;;
74293;SDS011;64044;59.904;10.738;2023-07-09T03:35:25;2.78;;;2.30;;
74293;SDS011;64044;59.904;10.738;2023-07-09T03:37:51;2.63;;;2.28;;
74293;SDS011;64044;59.904;10.738;2023-07-09T03:40:23;4.55;;;2.50;;
74293;SDS011;64044;59.904;10.738;2023-07-09T03:42:49;2.53;;;2.28;;
74293;SDS011;64044;59.904;10.738;2023-07-09T03:45:15;3.40;;;2.75;;
74293;SDS011;64044;59.904;10.738;2023-07-09T03:47:41;2.38;;;2.17;;
74293;SDS011;64044;59.904;10.738;2023-07-09T03:50:07;2.60;;;2.30;;
74293;SDS011;64044;59.904;10.738;2023-07-09T03:52:34;3.70;;;2.45;;
74293;SDS011;64044;59.904;10.738;2023-07-09T03:55:00;5.32;;;2.83;;
74293;SDS011;64044;59.904;10.738;2023-07-09T03:57:29;5.72;;;2.65;;
74293;SDS011;64044;59.904;10.738;2023-07-09T03:59:55;4.10;;;2.40;;
74293;SDS011;64044;59.904;10.738;2023-07-09T04:02:21;3.20;;;2.40;;
74293;SDS011;64044;59.904;10.738;2023-07-09T04:04:47;3.10;;;2.60;;
74293;SDS011;64044;59.904;10.738;2023-07-09T04:07:12;3.03;;;2.38;;
74293;SDS011;64044;59.904;10.738;2023-07-09T04:09:38;5.68;;;3.95;;
74293;SDS011;64044;59.904;10.738;2023-07-09T04:12:04;8.73;;;2.90;;
74293;SDS011;64044;59.904;10.738;2023-07-09T04:14:31;4.55;;;2.55;;
74293;SDS011;64044;59.904;10.738;2023-07-09T04:16:56;4.90;;;2.75;;
74293;SDS011;64044;59.904;10.738;2023-07-09T04:19:22;3.55;;;2.47;;
74293;SDS011;64044;59.904;10.738;2023-07-09T04:21:48;4.60;;;3.00;;
74293;SDS011;64044;59.904;10.738;2023-07-09T04:24:17;3.53;;;2.63;;
74293;SDS011;64044;59.904;10.738;2023-07-09T04:26:44;5.28;;;2.70;;
74293;SDS011;64044;59.904;10.738;2023-07-09T04:29:10;2.60;;;2.17;;
74293;SDS011;64044;59.904;10.738;2023-07-09T04:31:37;3.28;;;2.78;;
74293;SDS011;64044;59.904;10.738;2023-07-09T04:34:03;2.75;;;2.50;;
74293;SDS011;64044;59.904;10.738;2023-07-09T04:36:29;4.10;;;2.30;;
74293;SDS011;64044;59.904;10.738;2023-07-09T04:38:56;3.75;;;2.47;;
74293;SDS011;64044;59.904;10.738;2023-07-09T04:41:22;3.05;;;2.70;;
74293;SDS011;64044;59.904;10.738;2023-07-09T04:43:47;5.45;;;3.65;;
74293;SDS011;64044;59.904;10.738;2023-07-09T04:46:13;4.18;;;3.00;;
74293;SDS011;64044;59.904;10.738;2023-07-09T04:48:39;3.95;;;2.40;;
74293;SDS011;64044;59.904;10.738;2023-07-09T04:51:05;2.80;;;2.42;;
74293;SDS011;64044;59.904;10.738;2023-07-09T04:53:30;3.55;;;2.80;;
74293;SDS011;64044;59.904;10.738;2023-07-09T04:55:56;6.30;;;2.67;;
74293;SDS011;64044;59.904;10.738;2023-07-09T04:58:22;3.63;;;2.80;;
74293;SDS011;64044;59.904;10.738;2023-07-09T05:00:48;3.67;;;2.85;;
74293;SDS011;64044;59.904;10.738;2023-07-09T05:03:15;2.65;;;2.35;;
74293;SDS011;64044;59.904;10.738;2023-07-09T05:05:42;2.55;;;2.35;;
74293;SDS011;64044;59.904;10.738;2023-07-09T05:08:12;3.25;;;2.40;;
74293;SDS011;64044;59.904;10.738;2023-07-09T05:10:45;2.90;;;2.40;;
74293;SDS011;64044;59.904;10.738;2023-07-09T05:13:12;2.40;;;2.20;;
74293;SDS011;64044;59.904;10.738;2023-07-09T05:15:42;3.50;;;2.58;;
74293;SDS011;64044;59.904;10.738;2023-07-09T05:20:36;2.80;;;2.25;;
74293;SDS011;64044;59.904;10.738;2023-07-09T05:23:02;3.60;;;2.40;;
74293;SDS011;64044;59.904;10.738;2023-07-09T05:25:28;2.55;;;2.35;;
74293;SDS011;64044;59.904;10.738;2023-07-09T05:28:19;2.22;;;2.00;;
74293;SDS011;64044;59.904;10.738;2023-07-09T05:30:44;4.80;;;2.28;;
74293;SDS011;64044;59.904;10.738;2023-07-09T05:33:10;3.25;;;2.17;;
74293;SDS011;64044;59.904;10.738;2023-07-09T05:35:36;2.08;;;1.90;;
74293;SDS011;64044;59.904;10.738;2023-07-09T05:38:01;3.80;;;2.10;;
74293;SDS011;64044;59.904;10.738;2023-07-09T05:40:27;2.55;;;2.30;;
74293;SDS011;64044;59.904;10.738;2023-07-09T05:42:53;2.47;;;2.00;;
74293;SDS011;64044;59.904;10.738;2023-07-09T05:45:18;3.03;;;2.25;;
74293;SDS011;64044;59.904;10.738;2023-07-09T05:47:44;3.72;;;2.65;;
74293;SDS011;64044;59.904;10.738;2023-07-09T05:50:10;3.15;;;2.53;;
74293;SDS011;64044;59.904;10.738;2023-07-09T05:52:35;2.50;;;2.20;;
74293;SDS011;64044;59.904;10.738;2023-07-09T05:55:01;2.25;;;2.05;;
74293;SDS011;64044;59.904;10.738;2023-07-09T05:57:27;2.85;;;2.30;;
74293;SDS011;64044;59.904;10.738;2023-07-09T05:59:52;2.97;;;2.10;;
74293;SDS011;64044;59.904;10.738;2023-07-09T06:02:19;3.83;;;2.35;;
74293;SDS011;64044;59.904;10.738;2023-07-09T06:04:45;2.53;;;2.33;;
74293;SDS011;64044;59.904;10.738;2023-07-09T06:07:14;4.18;;;2.50;;
74293;SDS011;64044;59.904;10.738;2023-07-09T06:09:39;4.90;;;2.60;;
74293;SDS011;64044;59.904;10.738;2023-07-09T06:12:05;7.43;;;3.40;;
74293;SDS011;64044;59.904;10.738;2023-07-09T06:14:32;3.65;;;2.83;;
74293;SDS011;64044;59.904;10.738;2023-07-09T06:16:59;3.40;;;2.60;;
74293;SDS011;64044;59.904;10.738;2023-07-09T06:19:25;2.85;;;2.63;;
74293;SDS011;64044;59.904;10.738;2023-07-09T06:21:51;2.58;;;2.38;;
74293;SDS011;64044;59.904;10.738;2023-07-09T06:24:17;3.60;;;2.58;;
74293;SDS011;64044;59.904;10.738;2023-07-09T06:26:43;3.97;;;2.60;;
74293;SDS011;64044;59.904;10.738;2023-07-09T06:29:09;5.35;;;2.75;;
74293;SDS011;64044;59.904;10.738;2023-07-09T06:31:38;3.45;;;2.40;;
74293;SDS011;64044;59.904;10.738;2023-07-09T06:34:05;3.15;;;2.58;;
74293;SDS011;64044;59.904;10.738;2023-07-09T06:36:32;3.35;;;2.65;;
74293;SDS011;64044;59.904;10.738;2023-07-09T06:38:58;3.70;;;2.63;;
74293;SDS011;64044;59.904;10.738;2023-07-09T06:41:24;3.60;;;2.42;;
74293;SDS011;64044;59.904;10.738;2023-07-09T06:43:50;4.32;;;2.83;;
74293;SDS011;64044;59.904;10.738;2023-07-09T06:46:17;4.15;;;2.50;;
74293;SDS011;64044;59.904;10.738;2023-07-09T06:48:44;3.20;;;2.80;;
74293;SDS011;64044;59.904;10.738;2023-07-09T06:51:10;3.13;;;2.20;;
74293;SDS011;64044;59.904;10.738;2023-07-09T06:53:36;4.53;;;2.63;;
74293;SDS011;64044;59.904;10.738;2023-07-09T06:56:02;2.92;;;2.60;;
74293;SDS011;64044;59.904;10.738;2023-07-09T06:58:29;3.83;;;2.88;;
74293;SDS011;64044;59.904;10.738;2023-07-09T07:00:56;2.90;;;2.55;;
74293;SDS011;64044;59.904;10.738;2023-07-09T07:03:23;5.53;;;3.10;;
74293;SDS011;64044;59.904;10.738;2023-07-09T07:05:50;3.40;;;3.10;;
74293;SDS011;64044;59.904;10.738;2023-07-09T07:08:19;3.28;;;2.92;;
74293;SDS011;64044;59.904;10.738;2023-07-09T07:10:47;3.88;;;3.00;;
74293;SDS011;64044;59.904;10.738;2023-07-09T07:13:14;4.72;;;3.22;;
74293;SDS011;64044;59.904;10.738;2023-07-09T07:15:40;3.78;;;3.25;;
74293;SDS011;64044;59.904;10.738;2023-07-09T07:18:06;3.38;;;2.78;;
74293;SDS011;64044;59.904;10.738;2023-07-09T07:20:33;3.42;;;2.97;;
74293;SDS011;64044;59.904;10.738;2023-07-09T07:22:59;5.13;;;3.45;;
74293;SDS011;64044;59.904;10.738;2023-07-09T07:25:25;3.25;;;2.92;;
74293;SDS011;64044;59.904;10.738;2023-07-09T07:27:51;4.45;;;3.05;;
74293;SDS011;64044;59.904;10.738;2023-07-09T07:30:17;3.88;;;2.63;;
74293;SDS011;64044;59.904;10.738;2023-07-09T07:32:44;3.85;;;3.40;;
74293;SDS011;64044;59.904;10.738;2023-07-09T07:35:11;8.32;;;3.45;;
74293;SDS011;64044;59.904;10.738;2023-07-09T07:37:38;4.15;;;2.92;;
74293;SDS011;64044;59.904;10.738;2023-07-09T07:40:05;3.53;;;3.22;;
74293;SDS011;64044;59.904;10.738;2023-07-09T07:42:32;3.33;;;3.03;;
74293;SDS011;64044;59.904;10.738;2023-07-09T07:44:57;3.33;;;3.03;;
74293;SDS011;64044;59.904;10.738;2023-07-09T07:47:23;3.22;;;2.92;;
74293;SDS011;64044;59.904;10.738;2023-07-09T07:49:50;7.70;;;3.22;;
74293;SDS011;64044;59.904;10.738;2023-07-09T07:52:16;3.08;;;2.33;;
74293;SDS011;64044;59.904;10.738;2023-07-09T07:54:42;3.67;;;2.53;;
74293;SDS011;64044;59.904;10.738;2023-07-09T07:57:07;2.85;;;2.47;;
74293;SDS011;64044;59.904;10.738;2023-07-09T07:59:34;2.75;;;2.55;;
74293;SDS011;64044;59.904;10.738;2023-07-09T08:02:01;3.60;;;2.35;;
74293;SDS011;64044;59.904;10.738;2023-07-09T08:04:27;2.30;;;2.10;;
74293;SDS011;64044;59.904;10.738;2023-07-09T08:06:53;2.53;;;2.33;;
74293;SDS011;64044;59.904;10.738;2023-07-09T08:09:19;3.67;;;2.63;;
74293;SDS011;64044;59.904;10.738;2023-07-09T08:11:44;2.75;;;2.40;;
74293;SDS011;64044;59.904;10.738;2023-07-09T08:14:10;5.32;;;2.35;;
74293;SDS011;64044;59.904;10.738;2023-07-09T08:16:37;2.25;;;2.00;;
74293;SDS011;64044;59.904;10.738;2023-07-09T08:19:03;2.60;;;2.15;;
74293;SDS011;64044;59.904;10.738;2023-07-09T08:21:29;2.97;;;2.20;;
74293;SDS011;64044;59.904;10.738;2023-07-09T08:23:55;3.30;;;2.40;;
74293;SDS011;64044;59.904;10.738;2023-07-09T08:26:20;3.58;;;2.30;;
74293;SDS011;64044;59.904;10.738;2023-07-09T08:28:46;2.38;;;2.17;;
74293;SDS011;64044;59.904;10.738;2023-07-09T08:31:12;2.40;;;2.15;;
74293;SDS011;64044;59.904;10.738;2023-07-09T08:33:37;3.28;;;2.20;;
74293;SDS011;64044;59.904;10.738;2023-07-09T08:36:04;2.58;;;1.83;;
74293;SDS011;64044;59.904;10.738;2023-07-09T08:38:30;2.85;;;2.20;;
74293;SDS011;64044;59.904;10.738;2023-07-09T08:41:00;4.13;;;2.17;;
74293;SDS011;64044;59.904;10.738;2023-07-09T08:43:33;2.20;;;2.00;;
74293;SDS011;64044;59.904;10.738;2023-07-09T08:48:51;3.10;;;2.10;;
74293;SDS011;64044;59.904;10.738;2023-07-09T08:51:21;2.35;;;1.90;;
74293;SDS011;64044;59.904;10.738;2023-07-09T08:53:50;2.08;;;1.90;;
74293;SDS011;64044;59.904;10.738;2023-07-09T08:56:23;1.92;;;1.83;;
74293;SDS011;64044;59.904;10.738;2023-07-09T08:58:50;2.83;;;2.00;;
74293;SDS011;64044;59.904;10.738;2023-07-09T09:01:21;2.20;;;1.98;;
74293;SDS011;64044;59.904;10.738;2023-07-09T09:03:58;2.20;;;2.00;;
74293;SDS011;64044;59.904;10.738;2023-07-09T09:06:33;2.22;;;2.03;;
74293;SDS011;64044;59.904;10.738;2023-07-09T09:09:04;3.17;;;2.30;;
74293;SDS011;64044;59.904;10.738;2023-07-09T09:15:31;2.72;;;2.00;;
74293;SDS011;64044;59.904;10.738;2023-07-09T09:17:41;2.75;;;2.10;;
74293;SDS011;64044;59.904;10.738;2023-07-09T09:20:17;2.28;;;2.08;;
74293;SDS011;64044;59.904;10.738;2023-07-09T09:22:49;2.17;;;1.98;;
74293;SDS011;64044;59.904;10.738;2023-07-09T09:25:35;2.47;;;2.00;;
74293;SDS011;64044;59.904;10.738;2023-07-09T09:30:31;4.65;;;2.08;;
74293;SDS011;64044;59.904;10.738;2023-07-09T09:33:17;2.35;;;2.00;;
74293;SDS011;64044;59.904;10.738;2023-07-09T09:35:43;2.20;;;2.00;;
74293;SDS011;64044;59.904;10.738;2023-07-09T09:38:17;2.78;;;1.95;;
74293;SDS011;64044;59.904;10.738;2023-07-09T09:40:46;2.80;;;2.55;;
74293;SDS011;64044;59.904;10.738;2023-07-09T09:43:17;4.47;;;2.30;;
74293;SDS011;64044;59.904;10.738;2023-07-09T09:45:47;2.92;;;2.20;;
74293;SDS011;64044;59.904;10.738;2023-07-09T09:48:29;2.55;;;2.35;;
74293;SDS011;64044;59.904;10.738;2023-07-09T09:50:57;4.63;;;2.40;;
74293;SDS011;64044;59.904;10.738;2023-07-09T09:53:26;3.78;;;2.08;;
74293;SDS011;64044;59.904;10.738;2023-07-09T09:55:55;2.75;;;2.00;;
74293;SDS011;64044;59.904;10.738;2023-07-09T09:58:27;5.05;;;2.05;;
74293;SDS011;64044;59.904;10.738;2023-07-09T10:00:55;4.78;;;2.30;;
74293;SDS011;64044;59.904;10.738;2023-07-09T10:03:32;2.63;;;2.38;;
74293;SDS011;64044;59.904;10.738;2023-07-09T10:12:08;2.28;;;2.05;;
74293;SDS011;64044;59.904;10.738;2023-07-09T10:14:19;2.78;;;1.98;;
74293;SDS011;64044;59.904;10.738;2023-07-09T10:16:52;2.50;;;2.30;;
74293;SDS011;64044;59.904;10.738;2023-07-09T10:19:59;3.13;;;2.45;;
74293;SDS011;64044;59.904;10.738;2023-07-09T10:22:43;4.50;;;2.33;;
74293;SDS011;64044;59.904;10.738;2023-07-09T10:25:33;3.67;;;2.33;;
74293;SDS011;64044;59.904;10.738;2023-07-09T10:39:34;2.10;;;1.90;;
74293;SDS011;64044;59.904;10.738;2023-07-09T10:42:12;2.40;;;1.80;;
74293;SDS011;64044;59.904;10.738;2023-07-09T10:45:03;1.80;;;1.70;;
74293;SDS011;64044;59.904;10.738;2023-07-09T10:47:36;1.63;;;1.52;;
74293;SDS011;64044;59.904;10.738;2023-07-09T10:50:05;3.70;;;2.00;;
74293;SDS011;64044;59.904;10.738;2023-07-09T10:52:37;3.85;;;1.90;;
74293;SDS011;64044;59.904;10.738;2023-07-09T10:57:59;3.22;;;1.65;;
74293;SDS011;64044;59.904;10.738;2023-07-09T11:00:37;1.77;;;1.65;;
74293;SDS011;64044;59.904;10.738;2023-07-09T11:05:42;9.80;;;1.70;;
74293;SDS011;64044;59.904;10.738;2023-07-09T11:08:51;2.35;;;1.77;;
74293;SDS011;64044;59.904;10.738;2023-07-09T11:11:03;5.57;;;2.00;;
74293;SDS011;64044;59.904;10.738;2023-07-09T11:13:39;5.43;;;2.00;;
74293;SDS011;64044;59.904;10.738;2023-07-09T11:16:12;2.28;;;1.92;;
74293;SDS011;64044;59.904;10.738;2023-07-09T11:18:41;2.13;;;1.50;;
74293;SDS011;64044;59.904;10.738;2023-07-09T11:21:20;1.88;;;1.77;;
74293;SDS011;64044;59.904;10.738;2023-07-09T11:26:23;5.40;;;1.83;;
74293;SDS011;64044;59.904;10.738;2023-07-09T11:29:09;2.27;;;2.07;;
74293;SDS011;64044;59.904;10.738;2023-07-09T11:31:42;1.90;;;1.80;;
74293;SDS011;64044;59.904;10.738;2023-07-09T11:39:56;7.10;;;1.80;;
74293;SDS011;64044;59.904;10.738;2023-07-09T11:45:11;3.78;;;1.90;;
74293;SDS011;64044;59.904;10.738;2023-07-09T11:52:56;2.33;;;1.80;;
74293;SDS011;64044;59.904;10.738;2023-07-09T11:58:10;2.65;;;2.05;;
74293;SDS011;64044;59.904;10.738;2023-07-09T12:00:38;2.15;;;1.73;;
74293;SDS011;64044;59.904;10.738;2023-07-09T12:03:17;1.85;;;1.55;;
74293;SDS011;64044;59.904;10.738;2023-07-09T12:05:48;2.22;;;1.75;;
74293;SDS011;64044;59.904;10.738;2023-07-09T12:08:28;4.50;;;1.95;;
74293;SDS011;64044;59.904;10.738;2023-07-09T12:10:57;3.10;;;1.80;;
74293;SDS011;64044;59.904;10.738;2023-07-09T12:13:23;11.43;;;2.22;;
74293;SDS011;64044;59.904;10.738;2023-07-09T12:15:49;2.20;;;2.00;;
74293;SDS011;64044;59.904;10.738;2023-07-09T12:18:15;6.43;;;2.30;;
74293;SDS011;64044;59.904;10.738;2023-07-09T12:20:42;4.28;;;1.80;;
74293;SDS011;64044;59.904;10.738;2023-07-09T12:23:21;2.90;;;1.90;;
74293;SDS011;64044;59.904;10.738;2023-07-09T12:25:50;3.63;;;2.20;;
74293;SDS011;64044;59.904;10.738;2023-07-09T12:28:18;5.00;;;2.13;;
74293;SDS011;64044;59.904;10.738;2023-07-09T12:30:48;3.17;;;2.13;;
74293;SDS011;64044;59.904;10.738;2023-07-09T12:35:45;2.65;;;1.55;;
74293;SDS011;64044;59.904;10.738;2023-07-09T12:38:31;2.88;;;1.73;;
74293;SDS011;64044;59.904;10.738;2023-07-09T12:41:09;3.22;;;2.10;;
74293;SDS011;64044;59.904;10.738;2023-07-09T12:43:44;1.60;;;1.50;;
74293;SDS011;64044;59.904;10.738;2023-07-09T12:46:10;3.70;;;2.00;;
74293;SDS011;64044;59.904;10.738;2023-07-09T12:48:36;1.90;;;1.80;;
74293;SDS011;64044;59.904;10.738;2023-07-09T12:51:02;2.58;;;2.00;;
74293;SDS011;64044;59.904;10.738;2023-07-09T12:53:33;1.80;;;1.70;;
74293;SDS011;64044;59.904;10.738;2023-07-09T12:55:59;5.30;;;1.90;;
74293;SDS011;64044;59.904;10.738;2023-07-09T12:58:27;1.88;;;1.70;;
74293;SDS011;64044;59.904;10.738;2023-07-09T13:00:55;2.45;;;1.75;;
74293;SDS011;64044;59.904;10.738;2023-07-09T13:03:26;6.00;;;1.60;;
74293;SDS011;64044;59.904;10.738;2023-07-09T13:05:58;4.40;;;1.92;;
74293;SDS011;64044;59.904;10.738;2023-07-09T13:08:26;6.72;;;1.77;;
74293;SDS011;64044;59.904;10.738;2023-07-09T13:10:53;2.00;;;1.67;;
74293;SDS011;64044;59.904;10.738;2023-07-09T13:13:21;2.03;;;1.58;;
74293;SDS011;64044;59.904;10.738;2023-07-09T13:15:49;1.60;;;1.50;;
74293;SDS011;64044;59.904;10.738;2023-07-09T13:18:21;3.95;;;1.25;;
74293;SDS011;64044;59.904;10.738;2023-07-09T13:20:49;1.40;;;1.15;;
74293;SDS011;64044;59.904;10.738;2023-07-09T13:23:19;1.20;;;1.10;;
74293;SDS011;64044;59.904;10.738;2023-07-09T13:25:46;0.80;;;0.80;;
74293;SDS011;64044;59.904;10.738;2023-07-09T13:28:19;3.63;;;1.30;;
74293;SDS011;64044;59.904;10.738;2023-07-09T13:30:50;1.55;;;1.33;;
74293;SDS011;64044;59.904;10.738;2023-07-09T13:33:17;1.63;;;1.20;;
74293;SDS011;64044;59.904;10.738;2023-07-09T13:35:43;1.50;;;1.02;;
74293;SDS011;64044;59.904;10.738;2023-07-09T13:38:17;4.85;;;1.38;;
74293;SDS011;64044;59.904;10.738;2023-07-09T13:40:44;1.23;;;1.10;;
74293;SDS011;64044;59.904;10.738;2023-07-09T13:43:13;0.77;;;0.75;;
74293;SDS011;64044;59.904;10.738;2023-07-09T13:45:46;0.98;;;0.88;;
74293;SDS011;64044;59.904;10.738;2023-07-09T13:48:15;1.48;;;0.75;;
74293;SDS011;64044;59.904;10.738;2023-07-09T13:50:43;1.05;;;0.80;;
74293;SDS011;64044;59.904;10.738;2023-07-09T13:53:14;0.90;;;0.90;;
74293;SDS011;64044;59.904;10.738;2023-07-09T13:55:48;1.10;;;0.85;;
74293;SDS011;64044;59.904;10.738;2023-07-09T13:58:15;1.75;;;1.08;;
74293;SDS011;64044;59.904;10.738;2023-07-09T14:00:43;1.20;;;1.10;;
74293;SDS011;64044;59.904;10.738;2023-07-09T14:05:56;1.38;;;0.95;;
74293;SDS011;64044;59.904;10.738;2023-07-09T14:08:21;1.48;;;0.95;;
74293;SDS011;64044;59.904;10.738;2023-07-09T14:10:47;2.28;;;1.30;;
74293;SDS011;64044;59.904;10.738;2023-07-09T14:13:15;2.85;;;1.60;;
74293;SDS011;64044;59.904;10.738;2023-07-09T14:15:42;2.08;;;1.50;;
74293;SDS011;64044;59.904;10.738;2023-07-09T14:18:16;2.47;;;1.70;;
74293;SDS011;64044;59.904;10.738;2023-07-09T14:20:43;7.28;;;1.67;;
74293;SDS011;64044;59.904;10.738;2023-07-09T14:23:13;3.38;;;1.60;;
74293;SDS011;64044;59.904;10.738;2023-07-09T14:25:41;2.42;;;1.42;;
74293;SDS011;64044;59.904;10.738;2023-07-09T14:28:18;3.17;;;1.80;;
74293;SDS011;64044;59.904;10.738;2023-07-09T14:30:45;1.73;;;1.38;;
74293;SDS011;64044;59.904;10.738;2023-07-09T14:33:19;1.38;;;1.27;;
74293;SDS011;64044;59.904;10.738;2023-07-09T14:35:46;2.33;;;1.40;;
74293;SDS011;64044;59.904;10.738;2023-07-09T14:38:20;1.75;;;1.40;;
74293;SDS011;64044;59.904;10.738;2023-07-09T14:40:46;1.45;;;1.38;;
74293;SDS011;64044;59.904;10.738;2023-07-09T14:43:14;2.53;;;1.17;;
74293;SDS011;64044;59.904;10.738;2023-07-09T14:45:39;4.72;;;1.50;;
74293;SDS011;64044;59.904;10.738;2023-07-09T14:48:16;2.72;;;1.73;;
74293;SDS011;64044;59.904;10.738;2023-07-09T14:50:43;1.92;;;1.40;;
74293;SDS011;64044;59.904;10.738;2023-07-09T14:53:30;1.52;;;1.13;;
74293;SDS011;64044;59.904;10.738;2023-07-09T14:55:55;3.38;;;1.50;;
74293;SDS011;64044;59.904;10.738;2023-07-09T14:58:21;1.20;;;1.20;;
74293;SDS011;64044;59.904;10.738;2023-07-09T15:00:48;1.88;;;1.40;;
74293;SDS011;64044;59.904;10.738;2023-07-09T15:03:22;1.73;;;1.27;;
74293;SDS011;64044;59.904;10.738;2023-07-09T15:05:49;1.50;;;1.27;;
74293;SDS011;64044;59.904;10.738;2023-07-09T15:08:17;2.38;;;1.35;;
74293;SDS011;64044;59.904;10.738;2023-07-09T15:10:44;3.70;;;1.20;;
74293;SDS011;64044;59.904;10.738;2023-07-09T15:13:19;5.60;;;1.27;;
74293;SDS011;64044;59.904;10.738;2023-07-09T15:15:52;2.92;;;1.52;;
74293;SDS011;64044;59.904;10.738;2023-07-09T15:18:17;1.38;;;1.02;;
74293;SDS011;64044;59.904;10.738;2023-07-09T15:20:47;4.22;;;1.40;;
74293;SDS011;64044;59.904;10.738;2023-07-09T15:23:17;2.95;;;1.15;;
74293;SDS011;64044;59.904;10.738;2023-07-09T15:25:46;2.03;;;1.30;;
74293;SDS011;64044;59.904;10.738;2023-07-09T15:28:12;4.75;;;1.58;;
74293;SDS011;64044;59.904;10.738;2023-07-09T15:30:38;7.47;;;1.63;;
74293;SDS011;64044;59.904;10.738;2023-07-09T15:33:04;1.13;;;1.10;;
74293;SDS011;64044;59.904;10.738;2023-07-09T15:35:34;0.90;;;0.90;;
74293;SDS011;64044;59.904;10.738;2023-07-09T15:38:08;1.13;;;1.10;;
74293;SDS011;64044;59.904;10.738;2023-07-09T15:40:43;0.90;;;0.90;;
74293;SDS011;64044;59.904;10.738;2023-07-09T15:43:11;0.85;;;0.85;;
74293;SDS011;64044;59.904;10.738;2023-07-09T15:45:37;2.03;;;1.08;;
74293;SDS011;64044;59.904;10.738;2023-07-09T15:48:08;0.80;;;0.80;;